createdAt,value
2023-01-10T00:02:36.510Z,7.22
2023-01-10T00:07:39.282Z,6.30
2023-01-10T00:12:59.518Z,6.55
2023-01-10T00:18:03.918Z,5.22
2023-01-10T00:23:07.024Z,4.90
2023-01-10T00:28:19.668Z,5.38
2023-01-10T00:33:24.947Z,3.50
2023-01-10T00:38:27.721Z,3.90
2023-01-10T00:43:48.005Z,3.83
2023-01-10T00:48:52.735Z,3.50
2023-01-10T00:53:55.517Z,2.65
2023-01-10T00:58:58.261Z,1.90
2023-01-10T01:04:02.353Z,3.08
2023-01-10T01:09:05.152Z,2.53
2023-01-10T01:14:07.883Z,2.47
2023-01-10T01:19:12.474Z,2.22
2023-01-10T01:24:15.257Z,1.85
2023-01-10T01:29:18.201Z,2.22
2023-01-10T01:34:22.568Z,1.95
2023-01-10T01:39:25.609Z,3.13
2023-01-10T01:44:32.727Z,3.80
2023-01-10T01:49:41.289Z,3.17
2023-01-10T01:54:44.063Z,4.50
2023-01-10T01:59:49.153Z,3.92
2023-01-10T02:04:55.513Z,4.60
2023-01-10T02:10:02.309Z,3.55
2023-01-10T02:15:06.052Z,3.33
2023-01-10T02:20:13.731Z,5.00
2023-01-10T02:25:47.793Z,6.25
2023-01-10T02:31:11.443Z,9.35
2023-01-10T02:36:37.673Z,10.90
2023-01-10T02:41:46.418Z,10.50
2023-01-10T02:46:50.350Z,7.78
2023-01-10T02:51:54.773Z,11.55
2023-01-10T02:57:15.217Z,12.20
2023-01-10T03:02:27.784Z,8.55
2023-01-10T03:07:38.424Z,7.00
2023-01-10T03:12:46.214Z,10.50
2023-01-10T03:17:53.285Z,10.10
2023-01-10T03:22:57.539Z,9.85
2023-01-10T03:28:06.945Z,9.60
2023-01-10T03:33:11.502Z,9.17
2023-01-10T03:38:23.083Z,9.02
2023-01-10T03:43:51.092Z,8.88
2023-01-10T03:48:55.045Z,7.55
2023-01-10T03:54:00.898Z,6.85
2023-01-10T03:59:03.628Z,6.80
2023-01-10T04:04:06.675Z,7.68
2023-01-10T04:09:11.103Z,4.10
2023-01-10T04:14:13.832Z,4.18
2023-01-10T04:19:16.627Z,6.18
2023-01-10T04:24:20.765Z,5.80
2023-01-10T04:29:23.539Z,5.50
2023-01-10T04:34:26.302Z,4.72
2023-01-10T04:39:30.464Z,6.00
2023-01-10T04:44:33.232Z,7.40
2023-01-10T04:49:36.041Z,5.85
2023-01-10T04:54:40.138Z,6.72
2023-01-10T04:59:42.954Z,5.90
2023-01-10T05:04:45.803Z,5.88
2023-01-10T05:09:49.924Z,5.70
2023-01-10T05:14:52.694Z,5.93
2023-01-10T05:19:55.461Z,7.63
2023-01-10T05:24:59.558Z,7.97
2023-01-10T05:30:02.332Z,8.85
2023-01-10T05:35:05.756Z,7.85
2023-01-10T05:40:11.389Z,7.15
2023-01-10T05:45:14.142Z,4.85
2023-01-10T05:50:18.975Z,8.40
2023-01-10T05:55:23.219Z,8.90
2023-01-10T06:00:26.959Z,7.55
2023-01-10T06:05:29.728Z,7.75
2023-01-10T06:10:33.913Z,7.80
2023-01-10T06:15:37.333Z,9.38
2023-01-10T06:20:40.212Z,6.15
2023-01-10T06:25:44.363Z,7.90
2023-01-10T06:30:47.188Z,6.90
2023-01-10T06:35:50.067Z,10.70
2023-01-10T06:40:54.233Z,11.48
2023-01-10T06:45:57.079Z,8.57
2023-01-10T06:50:59.947Z,7.65
2023-01-10T06:56:05.918Z,10.70
2023-01-10T07:01:14.735Z,12.30
2023-01-10T07:06:17.717Z,12.63
2023-01-10T07:11:21.980Z,13.00
2023-01-10T07:16:24.864Z,10.48
2023-01-10T07:21:27.926Z,12.88
2023-01-10T07:26:32.089Z,12.13
2023-01-10T07:31:34.973Z,13.90
2023-01-10T07:36:39.466Z,13.20
2023-01-10T07:41:43.713Z,10.57
2023-01-10T07:46:51.467Z,12.38
2023-01-10T07:51:54.769Z,12.68
2023-01-10T07:56:58.893Z,14.07
2023-01-10T08:02:01.745Z,14.35
2023-01-10T08:07:04.629Z,14.82
2023-01-10T08:12:08.931Z,15.07
2023-01-10T08:17:11.695Z,13.75
2023-01-10T08:22:14.500Z,11.73
2023-01-10T08:27:18.780Z,10.05
2023-01-10T08:32:22.439Z,8.70
2023-01-10T08:37:25.292Z,10.27
2023-01-10T08:42:29.535Z,14.90
2023-01-10T08:47:32.304Z,12.52
2023-01-10T08:52:35.162Z,12.73
2023-01-10T08:57:39.394Z,14.68
2023-01-10T09:02:42.352Z,13.93
2023-01-10T09:07:46.352Z,10.00
2023-01-10T09:12:56.162Z,12.15
2023-01-10T09:18:01.382Z,12.00
2023-01-10T09:23:08.459Z,9.75
2023-01-10T09:28:12.724Z,7.65
2023-01-10T09:33:15.847Z,8.20
2023-01-10T09:38:22.264Z,8.32
2023-01-10T09:43:36.282Z,10.00
2023-01-10T09:48:48.950Z,9.60
2023-01-10T09:59:04.800Z,9.55
2023-01-10T10:04:20.787Z,10.45
2023-01-10T10:09:26.508Z,9.63
2023-01-10T10:14:52.464Z,7.70
2023-01-10T10:20:11.007Z,9.30
2023-01-10T10:25:34.893Z,11.10
2023-01-10T10:30:53.053Z,9.95
2023-01-10T10:36:01.092Z,8.32
2023-01-10T10:41:04.313Z,9.77
2023-01-10T10:46:10.707Z,9.18
2023-01-10T10:51:17.998Z,9.05
2023-01-10T10:56:24.063Z,7.82
2023-01-10T11:01:28.702Z,9.95
2023-01-10T11:06:34.191Z,9.70
2023-01-10T11:11:41.823Z,7.57
2023-01-10T11:16:45.960Z,7.53
2023-01-10T11:21:53.358Z,8.85
2023-01-10T11:26:57.724Z,6.80
2023-01-10T11:32:10.542Z,7.93
2023-01-10T11:37:21.560Z,8.90
2023-01-10T11:42:30.689Z,12.73
2023-01-10T11:47:41.697Z,8.88
2023-01-10T11:52:49.628Z,8.52
2023-01-10T11:57:59.881Z,7.80
2023-01-10T12:03:14.921Z,8.73
2023-01-10T12:08:26.523Z,7.90
2023-01-10T12:13:30.640Z,6.95
2023-01-10T12:18:34.810Z,5.90
2023-01-10T12:23:41.476Z,7.45
2023-01-10T12:28:52.095Z,5.70
2023-01-10T12:34:02.441Z,7.72
2023-01-10T12:39:16.418Z,6.93
2023-01-10T12:44:27.779Z,6.45
2023-01-10T12:49:36.873Z,6.18
2023-01-10T12:54:39.738Z,5.50
2023-01-10T12:59:46.247Z,5.30
2023-01-10T13:04:54.304Z,4.13
2023-01-10T13:09:57.427Z,5.25
2023-01-10T13:15:06.190Z,5.43
2023-01-10T13:20:37.037Z,5.40
2023-01-10T13:25:39.970Z,4.45
2023-01-10T13:30:42.922Z,4.30
2023-01-10T13:35:48.950Z,5.55
2023-01-10T13:41:00.977Z,5.45
2023-01-10T13:46:35.000Z,4.38
2023-01-10T13:51:40.205Z,4.25
2023-01-10T13:56:44.603Z,4.15
2023-01-10T14:02:10.282Z,6.22
2023-01-10T14:07:22.923Z,4.78
2023-01-10T14:12:30.119Z,4.40
2023-01-10T14:17:34.869Z,3.28
2023-01-10T14:22:40.427Z,3.67
2023-01-10T14:27:46.413Z,5.97
2023-01-10T14:32:52.149Z,4.70
2023-01-10T14:37:58.505Z,3.35
2023-01-10T14:43:05.657Z,3.03
2023-01-10T14:48:27.163Z,3.50
2023-01-10T14:53:31.868Z,3.75
2023-01-10T14:58:34.595Z,4.80
2023-01-10T15:03:38.578Z,4.70
2023-01-10T15:08:42.927Z,4.07
2023-01-10T15:13:51.444Z,2.90
2023-01-10T15:18:56.453Z,2.65
2023-01-10T15:24:00.626Z,3.88
2023-01-10T15:29:10.265Z,2.88
2023-01-10T15:34:19.462Z,3.13
2023-01-10T15:39:26.187Z,3.17
2023-01-10T15:44:40.861Z,3.33
2023-01-10T15:49:53.977Z,2.88
2023-01-10T15:54:58.107Z,1.95
2023-01-10T16:00:01.170Z,2.63
2023-01-10T16:05:11.333Z,3.67
2023-01-10T16:10:21.389Z,3.38
2023-01-10T16:15:26.275Z,3.10
2023-01-10T16:20:31.635Z,3.08
2023-01-10T16:25:39.621Z,2.08
2023-01-10T16:30:46.499Z,3.35
2023-01-10T16:35:50.811Z,2.42
2023-01-10T16:40:58.212Z,2.00
2023-01-10T16:46:01.084Z,2.92
2023-01-10T16:51:16.849Z,2.80
2023-01-10T16:56:24.926Z,2.22
2023-01-10T17:01:31.752Z,3.60
2023-01-10T17:06:35.577Z,2.35
2023-01-10T17:11:43.080Z,3.47
2023-01-10T17:16:46.268Z,2.78
2023-01-10T17:21:49.061Z,2.15
2023-01-10T17:26:53.386Z,2.05
2023-01-10T17:31:56.273Z,3.08
2023-01-10T17:36:59.086Z,2.38
2023-01-10T17:42:03.342Z,2.15
2023-01-10T17:47:06.199Z,3.05
2023-01-10T17:52:09.100Z,2.38
2023-01-10T17:57:14.791Z,2.65
2023-01-10T18:02:19.286Z,3.08
2023-01-10T18:07:22.167Z,3.08
2023-01-10T18:12:26.391Z,2.85
2023-01-10T18:17:29.372Z,2.63
2023-01-10T18:22:49.822Z,2.28
2023-01-10T18:27:55.306Z,2.17
2023-01-10T18:32:58.142Z,2.25
2023-01-10T18:38:01.047Z,2.85
2023-01-10T18:43:05.290Z,3.03
2023-01-10T18:48:08.086Z,2.42
2023-01-10T18:53:10.963Z,2.85
2023-01-10T18:58:15.166Z,2.22
2023-01-10T19:03:18.136Z,2.58
2023-01-10T19:08:20.911Z,2.40
2023-01-10T19:13:25.150Z,2.72
2023-01-10T19:18:28.316Z,2.78
2023-01-10T19:23:31.390Z,2.33
2023-01-10T19:28:35.842Z,3.25
2023-01-10T19:33:39.102Z,3.10
2023-01-10T19:38:41.965Z,2.75
2023-01-10T19:43:46.109Z,4.60
2023-01-10T19:48:48.980Z,2.95
2023-01-10T19:53:52.268Z,3.05
2023-01-10T19:58:56.663Z,2.85
2023-01-10T20:04:02.154Z,2.03
2023-01-10T20:09:06.059Z,3.75
2023-01-10T20:14:14.466Z,1.95
2023-01-10T20:19:17.414Z,3.13
2023-01-10T20:24:21.762Z,3.42
2023-01-10T20:29:26.117Z,4.13
2023-01-10T20:34:29.668Z,3.08
2023-01-10T20:39:32.974Z,3.97
2023-01-10T20:44:37.270Z,2.35
2023-01-10T20:49:40.042Z,2.55
2023-01-10T20:54:42.951Z,3.20
2023-01-10T20:59:47.146Z,3.60
2023-01-10T21:04:50.731Z,2.00
2023-01-10T21:09:53.625Z,2.72
2023-01-10T21:14:57.924Z,2.38
2023-01-10T21:20:00.753Z,2.65
2023-01-10T21:25:03.973Z,2.58
2023-01-10T21:30:10.405Z,1.75
2023-01-10T21:35:13.175Z,1.50
2023-01-10T21:40:16.330Z,1.20
2023-01-10T21:45:21.094Z,1.35
2023-01-10T21:50:23.951Z,1.52
2023-01-10T21:55:27.428Z,1.30
2023-01-10T22:00:31.993Z,0.60
2023-01-10T22:05:34.920Z,0.88
2023-01-10T22:10:37.787Z,0.88
2023-01-10T22:15:43.343Z,0.68
2023-01-10T22:20:46.269Z,1.10
2023-01-10T22:25:59.008Z,1.17
2023-01-10T22:36:06.573Z,0.52
2023-01-10T22:41:10.823Z,1.05
2023-01-10T22:46:16.451Z,0.65
2023-01-10T22:51:21.101Z,1.00
2023-01-10T22:56:25.372Z,0.50
2023-01-10T23:01:29.612Z,0.90
2023-01-10T23:06:32.576Z,1.05
2023-01-10T23:11:35.404Z,0.75
2023-01-10T23:16:39.656Z,0.57
2023-01-10T23:21:42.515Z,0.45
2023-01-10T23:26:45.275Z,0.93
2023-01-10T23:31:49.827Z,0.50
2023-01-10T23:36:52.635Z,0.30
2023-01-10T23:41:55.436Z,0.50
2023-01-10T23:46:59.583Z,0.25
2023-01-10T23:52:02.461Z,0.70
2023-01-10T23:57:05.228Z,0.80
